createdAt,value
2019-02-10T00:00:31.380Z,98552.66
2019-02-10T00:01:52.939Z,98544.33
2019-02-10T00:02:56.977Z,98548.92
2019-02-10T00:04:01.047Z,98543.80
2019-02-10T00:05:05.196Z,98544.05
2019-02-10T00:06:09.228Z,98544.58
2019-02-10T00:07:13.273Z,98541.61
2019-02-10T00:08:17.336Z,98535.59
2019-02-10T00:09:21.345Z,98540.27
2019-02-10T00:10:25.476Z,98535.55
2019-02-10T00:11:29.504Z,98523.94
2019-02-10T00:12:33.606Z,98541.61
2019-02-10T00:13:38.774Z,98539.95
2019-02-10T00:14:42.853Z,98539.91
2019-02-10T00:15:46.926Z,98533.77
2019-02-10T00:16:50.949Z,98536.23
2019-02-10T00:17:55.033Z,98531.61
2019-02-10T00:18:59.051Z,98528.93
2019-02-10T00:20:03.100Z,98533.48
2019-02-10T00:21:07.218Z,98529.98
2019-02-10T00:22:11.257Z,98527.88
2019-02-10T00:23:15.342Z,98522.23
2019-02-10T00:24:19.360Z,98528.31
2019-02-10T00:25:23.397Z,98520.72
2019-02-10T00:26:27.388Z,98529.22
2019-02-10T00:27:31.382Z,98525.80
2019-02-10T00:28:35.509Z,98520.80
2019-02-10T00:29:39.541Z,98520.47
2019-02-10T00:30:43.558Z,98524.73
2019-02-10T00:31:47.590Z,98519.17
2019-02-10T00:32:51.588Z,98515.11
2019-02-10T00:33:55.611Z,98518.64
2019-02-10T00:34:59.650Z,98514.48
2019-02-10T00:36:03.674Z,98514.84
2019-02-10T00:37:07.656Z,98518.05
2019-02-10T00:38:11.677Z,98520.95
2019-02-10T00:39:15.725Z,98522.50
2019-02-10T00:40:19.732Z,98516.92
2019-02-10T00:41:23.738Z,98526.03
2019-02-10T00:42:27.749Z,98518.52
2019-02-10T00:43:32.007Z,98517.70
2019-02-10T00:44:36.060Z,98518.23
2019-02-10T00:45:40.093Z,98513.67
2019-02-10T00:46:44.077Z,98516.60
2019-02-10T00:47:48.166Z,98507.78
2019-02-10T00:48:52.179Z,98516.13
2019-02-10T00:49:56.264Z,98519.09
2019-02-10T00:51:00.297Z,98510.44
2019-02-10T00:52:04.347Z,98512.06
2019-02-10T00:53:08.430Z,98515.73
2019-02-10T00:54:15.263Z,98516.22
2019-02-10T00:55:19.308Z,98522.94
2019-02-10T00:56:23.361Z,98507.53
2019-02-10T00:57:27.375Z,98519.44
2019-02-10T00:58:31.410Z,98519.97
2019-02-10T00:59:35.439Z,98514.88
2019-02-10T01:00:39.575Z,98523.22
2019-02-10T01:01:43.639Z,98510.90
2019-02-10T01:02:47.629Z,98520.33
2019-02-10T01:03:51.645Z,98513.30
2019-02-10T01:04:55.704Z,98512.77
2019-02-10T01:05:59.759Z,98515.73
2019-02-10T01:07:03.745Z,98515.45
2019-02-10T01:08:07.794Z,98516.51
2019-02-10T01:09:11.858Z,98514.11
2019-02-10T01:10:15.974Z,98512.77
2019-02-10T01:11:20.033Z,98508.45
2019-02-10T01:12:24.094Z,98505.53
2019-02-10T01:13:28.116Z,98501.47
2019-02-10T01:14:32.227Z,98511.42
2019-02-10T01:15:36.299Z,98507.61
2019-02-10T01:16:40.485Z,98504.64
2019-02-10T01:17:44.591Z,98507.64
2019-02-10T01:18:59.664Z,98504.15
2019-02-10T01:20:03.826Z,98502.52
2019-02-10T01:21:07.891Z,98495.46
2019-02-10T01:22:18.437Z,98504.11
2019-02-10T01:23:22.448Z,98505.20
2019-02-10T01:24:26.826Z,98499.56
2019-02-10T01:25:30.855Z,98506.83
2019-02-10T01:26:34.866Z,98509.77
2019-02-10T01:27:38.994Z,98505.98
2019-02-10T01:28:43.076Z,98500.98
2019-02-10T01:29:47.159Z,98503.38
2019-02-10T01:30:51.196Z,98498.40
2019-02-10T01:31:55.214Z,98493.21
2019-02-10T01:32:59.365Z,98497.97
2019-02-10T01:34:03.452Z,98494.52
2019-02-10T01:35:07.602Z,98500.70
2019-02-10T01:36:11.740Z,98496.18
2019-02-10T01:37:15.756Z,98489.67
2019-02-10T01:38:19.830Z,98489.88
2019-02-10T01:39:24.049Z,98489.56
2019-02-10T01:40:28.069Z,98491.97
2019-02-10T01:41:32.157Z,98482.05
2019-02-10T01:42:36.194Z,98485.02
2019-02-10T01:43:40.317Z,98489.53
2019-02-10T01:44:44.365Z,98490.63
2019-02-10T01:45:48.395Z,98485.54
2019-02-10T01:46:52.448Z,98494.94
2019-02-10T01:47:56.457Z,98494.65
2019-02-10T01:49:00.543Z,98500.90
2019-02-10T01:50:05.797Z,98485.41
2019-02-10T01:51:09.835Z,98486.50
2019-02-10T01:52:13.836Z,98491.16
2019-02-10T01:53:17.869Z,98488.23
2019-02-10T01:54:21.900Z,98487.38
2019-02-10T01:55:25.902Z,98498.97
2019-02-10T01:56:29.906Z,98497.73
2019-02-10T01:57:33.935Z,98492.55
2019-02-10T01:58:38.023Z,98487.91
2019-02-10T01:59:42.072Z,98488.41
2019-02-10T02:00:46.109Z,98489.90
2019-02-10T02:01:50.177Z,98493.42
2019-02-10T02:02:54.257Z,98495.58
2019-02-10T02:03:58.319Z,98496.57
2019-02-10T02:05:02.443Z,98493.88
2019-02-10T02:06:06.446Z,98487.38
2019-02-10T02:07:10.539Z,98487.38
2019-02-10T02:08:14.617Z,98482.55
2019-02-10T02:09:18.700Z,98475.55
2019-02-10T02:10:22.863Z,98474.06
2019-02-10T02:11:26.829Z,98479.27
2019-02-10T02:12:30.854Z,98481.73
2019-02-10T02:13:36.441Z,98474.53
2019-02-10T02:14:38.937Z,98481.56
2019-02-10T02:15:42.976Z,98474.53
2019-02-10T02:16:46.986Z,98475.88
2019-02-10T02:17:51.041Z,98475.13
2019-02-10T02:18:55.059Z,98476.72
2019-02-10T02:19:59.068Z,98479.94
2019-02-10T02:21:03.244Z,98484.31
2019-02-10T02:22:07.282Z,98473.89
2019-02-10T02:23:11.404Z,98476.62
2019-02-10T02:24:15.421Z,98476.30
2019-02-10T02:25:19.490Z,98479.48
2019-02-10T02:26:26.425Z,98476.55
2019-02-10T02:27:30.452Z,98480.58
2019-02-10T02:28:34.463Z,98480.00
2019-02-10T02:29:38.541Z,98480.28
2019-02-10T02:30:42.516Z,98480.82
2019-02-10T02:31:46.577Z,98483.54
2019-02-10T02:32:50.580Z,98478.34
2019-02-10T02:33:54.662Z,98483.54
2019-02-10T02:34:58.646Z,98480.00
2019-02-10T02:36:02.693Z,98475.98
2019-02-10T02:37:08.298Z,98472.03
2019-02-10T02:38:10.817Z,98466.94
2019-02-10T02:39:14.890Z,98472.59
2019-02-10T02:40:18.906Z,98475.77
2019-02-10T02:41:22.926Z,98480.96
2019-02-10T02:42:26.972Z,98475.66
2019-02-10T02:43:30.971Z,98457.40
2019-02-10T02:44:34.961Z,98469.80
2019-02-10T02:45:38.959Z,98466.93
2019-02-10T02:46:43.015Z,98458.50
2019-02-10T02:47:47.028Z,98467.95
2019-02-10T02:48:51.020Z,98463.44
2019-02-10T02:49:55.085Z,98457.63
2019-02-10T02:51:00.852Z,98463.31
2019-02-10T02:52:03.182Z,98464.88
2019-02-10T02:53:07.181Z,98463.96
2019-02-10T02:54:11.157Z,98462.05
2019-02-10T02:55:15.162Z,98466.02
2019-02-10T02:56:19.211Z,98473.55
2019-02-10T02:57:23.279Z,98470.30
2019-02-10T02:58:27.253Z,98463.16
2019-02-10T02:59:31.267Z,98467.21
2019-02-10T03:00:35.401Z,98471.20
2019-02-10T03:01:39.438Z,98478.70
2019-02-10T03:02:43.418Z,98468.27
2019-02-10T03:03:47.407Z,98472.30
2019-02-10T03:04:51.474Z,98471.22
2019-02-10T03:05:55.499Z,98472.56
2019-02-10T03:06:59.515Z,98476.50
2019-02-10T03:08:03.550Z,98472.75
2019-02-10T03:09:07.604Z,98471.13
2019-02-10T03:10:11.661Z,98471.91
2019-02-10T03:11:15.661Z,98475.72
2019-02-10T03:12:19.680Z,98477.52
2019-02-10T03:13:23.753Z,98468.16
2019-02-10T03:14:27.808Z,98466.16
2019-02-10T03:15:31.886Z,98468.59
2019-02-10T03:16:35.878Z,98468.94
2019-02-10T03:17:39.876Z,98468.91
2019-02-10T03:18:51.930Z,98474.20
2019-02-10T03:19:48.004Z,98472.94
2019-02-10T03:20:51.991Z,98469.78
2019-02-10T03:21:55.988Z,98459.08
2019-02-10T03:22:59.995Z,98471.64
2019-02-10T03:24:04.143Z,98469.92
2019-02-10T03:25:08.198Z,98473.41
2019-02-10T03:26:12.239Z,98472.32
2019-02-10T03:27:16.306Z,98469.32
2019-02-10T03:28:20.356Z,98474.59
2019-02-10T03:29:24.412Z,98476.47
2019-02-10T03:30:28.448Z,98483.42
2019-02-10T03:31:32.458Z,98478.05
2019-02-10T03:32:36.464Z,98473.25
2019-02-10T03:33:40.478Z,98481.19
2019-02-10T03:34:44.554Z,98479.28
2019-02-10T03:35:48.556Z,98476.45
2019-02-10T03:36:52.560Z,98481.47
2019-02-10T03:37:56.603Z,98484.53
2019-02-10T03:39:00.578Z,98476.03
2019-02-10T03:40:05.100Z,98485.71
2019-02-10T03:41:09.163Z,98490.20
2019-02-10T03:42:13.129Z,98486.42
2019-02-10T03:43:17.128Z,98482.34
2019-02-10T03:44:21.191Z,98484.37
2019-02-10T03:45:25.293Z,98492.71
2019-02-10T03:46:30.327Z,98493.28
2019-02-10T03:47:34.398Z,98487.80
2019-02-10T03:48:38.393Z,98488.12
2019-02-10T03:49:42.412Z,98490.87
2019-02-10T03:50:46.528Z,98493.09
2019-02-10T03:51:50.526Z,98486.56
2019-02-10T03:52:54.538Z,98484.16
2019-02-10T03:53:58.566Z,98491.75
2019-02-10T03:55:02.662Z,98486.81
2019-02-10T03:56:06.745Z,98490.41
2019-02-10T03:57:10.812Z,98489.45
2019-02-10T03:58:14.912Z,98487.75
2019-02-10T03:59:19.037Z,98498.03
2019-02-10T04:00:23.062Z,98495.56
2019-02-10T04:01:27.203Z,98491.16
2019-02-10T04:02:31.211Z,98498.08
2019-02-10T04:03:35.235Z,98502.64
2019-02-10T04:04:39.248Z,98492.71
2019-02-10T04:05:43.277Z,98496.91
2019-02-10T04:06:47.288Z,98500.09
2019-02-10T04:07:51.297Z,98504.53
2019-02-10T04:08:55.353Z,98498.81
2019-02-10T04:09:59.336Z,98499.81
2019-02-10T04:11:03.344Z,98499.21
2019-02-10T04:12:07.375Z,98499.45
2019-02-10T04:13:11.366Z,98493.52
2019-02-10T04:14:15.424Z,98502.95
2019-02-10T04:15:19.435Z,98505.17
2019-02-10T04:16:23.501Z,98510.20
2019-02-10T04:17:27.520Z,98502.95
2019-02-10T04:18:31.527Z,98501.36
2019-02-10T04:19:35.569Z,98512.08
2019-02-10T04:20:39.589Z,98510.20
2019-02-10T04:21:43.574Z,98502.14
2019-02-10T04:22:47.597Z,98504.40
2019-02-10T04:23:51.582Z,98514.77
2019-02-10T04:24:55.552Z,98496.34
2019-02-10T04:25:59.568Z,98510.90
2019-02-10T04:27:03.582Z,98507.12
2019-02-10T04:28:07.634Z,98509.24
2019-02-10T04:29:11.643Z,98517.02
2019-02-10T04:30:15.640Z,98513.45
2019-02-10T04:31:19.642Z,98510.45
2019-02-10T04:32:23.642Z,98508.42
2019-02-10T04:33:27.707Z,98513.02
2019-02-10T04:34:31.700Z,98509.20
2019-02-10T04:35:35.700Z,98516.48
2019-02-10T04:36:39.680Z,98511.95
2019-02-10T04:37:46.170Z,98505.81
2019-02-10T04:38:47.764Z,98519.34
2019-02-10T04:39:51.789Z,98514.53
2019-02-10T04:40:55.797Z,98515.56
2019-02-10T04:41:59.793Z,98526.23
2019-02-10T04:43:03.822Z,98511.92
2019-02-10T04:44:07.870Z,98515.98
2019-02-10T04:45:11.888Z,98528.57
2019-02-10T04:46:15.899Z,98528.36
2019-02-10T04:47:19.927Z,98521.92
2019-02-10T04:48:23.924Z,98528.33
2019-02-10T04:49:27.965Z,98528.86
2019-02-10T04:50:31.953Z,98537.48
2019-02-10T04:51:35.947Z,98528.02
2019-02-10T04:52:39.975Z,98532.77
2019-02-10T04:53:43.960Z,98535.06
2019-02-10T04:54:47.968Z,98525.27
2019-02-10T04:56:24.829Z,98534.15
2019-02-10T04:57:28.810Z,98544.58
2019-02-10T04:58:32.899Z,98537.83
2019-02-10T04:59:36.910Z,98546.10
2019-02-10T05:00:40.897Z,98541.89
2019-02-10T05:01:44.915Z,98544.02
2019-02-10T05:02:48.944Z,98538.86
2019-02-10T05:03:52.963Z,98541.55
2019-02-10T05:04:57.005Z,98543.48
2019-02-10T05:06:01.049Z,98537.76
2019-02-10T05:07:05.249Z,98544.86
2019-02-10T05:08:09.236Z,98542.73
2019-02-10T05:09:13.258Z,98539.92
2019-02-10T05:10:17.359Z,98541.50
2019-02-10T05:11:21.349Z,98543.20
2019-02-10T05:12:25.361Z,98546.10
2019-02-10T05:13:29.413Z,98544.97
2019-02-10T05:14:33.390Z,98547.94
2019-02-10T05:15:37.514Z,98542.88
2019-02-10T05:16:41.595Z,98547.98
2019-02-10T05:17:45.609Z,98543.38
2019-02-10T05:18:49.677Z,98546.34
2019-02-10T05:19:53.722Z,98546.03
2019-02-10T05:20:57.966Z,98538.54
2019-02-10T05:22:02.104Z,98537.76
2019-02-10T05:23:06.253Z,98545.04
2019-02-10T05:24:10.438Z,98533.70
2019-02-10T05:25:14.674Z,98545.95
2019-02-10T05:26:18.880Z,98546.98
2019-02-10T05:27:23.065Z,98547.27
2019-02-10T05:28:27.275Z,98535.17
2019-02-10T05:29:31.641Z,98552.52
2019-02-10T05:30:35.831Z,98546.72
2019-02-10T05:31:39.863Z,98547.18
2019-02-10T05:32:43.884Z,98537.50
2019-02-10T05:33:47.914Z,98545.92
2019-02-10T05:34:52.054Z,98560.16
2019-02-10T05:35:56.312Z,98552.30
2019-02-10T05:37:00.391Z,98558.45
2019-02-10T05:38:04.741Z,98559.62
2019-02-10T05:39:08.516Z,98560.09
2019-02-10T05:40:12.531Z,98560.68
2019-02-10T05:41:16.556Z,98564.93
2019-02-10T05:42:20.714Z,98573.23
2019-02-10T05:43:24.760Z,98571.89
2019-02-10T05:44:28.797Z,98566.20
2019-02-10T05:45:32.847Z,98568.64
2019-02-10T05:46:36.870Z,98573.48
2019-02-10T05:47:40.978Z,98579.29
2019-02-10T05:48:45.043Z,98575.92
2019-02-10T05:49:49.053Z,98579.70
2019-02-10T05:50:53.216Z,98579.77
2019-02-10T05:51:57.241Z,98575.81
2019-02-10T05:53:01.217Z,98579.38
2019-02-10T05:54:05.295Z,98579.44
2019-02-10T05:55:09.411Z,98571.50
2019-02-10T05:56:13.457Z,98579.84
2019-02-10T05:57:17.477Z,98588.15
2019-02-10T05:58:21.571Z,98577.53
2019-02-10T05:59:25.614Z,98578.59
2019-02-10T06:00:29.727Z,98580.91
2019-02-10T06:02:11.980Z,98586.56
2019-02-10T06:03:16.082Z,98593.38
2019-02-10T06:04:20.141Z,98585.09
2019-02-10T06:05:26.345Z,98593.98
2019-02-10T06:06:30.457Z,98585.23
2019-02-10T06:07:34.537Z,98586.54
2019-02-10T06:08:38.568Z,98588.91
2019-02-10T06:09:42.581Z,98591.28
2019-02-10T06:10:46.577Z,98586.73
2019-02-10T06:11:50.662Z,98595.28
2019-02-10T06:12:54.874Z,98593.94
2019-02-10T06:13:58.894Z,98589.91
2019-02-10T06:15:02.928Z,98593.76
2019-02-10T06:16:07.025Z,98598.32
2019-02-10T06:17:11.025Z,98597.26
2019-02-10T06:18:15.087Z,98606.60
2019-02-10T06:19:19.114Z,98603.88
2019-02-10T06:20:23.205Z,98595.50
2019-02-10T06:21:27.258Z,98599.47
2019-02-10T06:22:31.265Z,98604.80
2019-02-10T06:23:35.373Z,98605.54
2019-02-10T06:24:39.404Z,98604.97
2019-02-10T06:25:43.533Z,98614.03
2019-02-10T06:26:47.693Z,98618.12
2019-02-10T06:27:51.762Z,98613.25
2019-02-10T06:28:56.031Z,98624.25
2019-02-10T06:30:00.066Z,98614.38
2019-02-10T06:31:04.206Z,98612.22
2019-02-10T06:32:08.318Z,98613.53
2019-02-10T06:33:12.333Z,98610.16
2019-02-10T06:34:16.399Z,98618.48
2019-02-10T06:35:20.481Z,98613.39
2019-02-10T06:36:24.557Z,98624.73
2019-02-10T06:37:28.614Z,98620.70
2019-02-10T06:38:33.159Z,98623.61
2019-02-10T06:39:37.284Z,98627.88
2019-02-10T06:40:41.368Z,98631.91
2019-02-10T06:41:45.373Z,98630.89
2019-02-10T06:42:49.488Z,98623.08
2019-02-10T06:43:53.610Z,98637.05
2019-02-10T06:44:57.706Z,98633.58
2019-02-10T06:46:01.888Z,98634.36
2019-02-10T06:47:05.996Z,98630.26
2019-02-10T06:48:09.985Z,98636.45
2019-02-10T06:49:14.049Z,98640.47
2019-02-10T06:50:18.204Z,98638.28
2019-02-10T06:51:22.316Z,98637.46
2019-02-10T06:52:26.341Z,98630.21
2019-02-10T06:53:30.408Z,98636.44
2019-02-10T06:54:34.596Z,98639.34
2019-02-10T06:55:38.779Z,98636.65
2019-02-10T06:56:42.942Z,98639.09
2019-02-10T06:57:47.124Z,98630.67
2019-02-10T06:58:51.119Z,98638.74
2019-02-10T07:00:03.020Z,98642.84
2019-02-10T07:01:14.192Z,98645.78
2019-02-10T07:02:23.303Z,98651.60
2019-02-10T07:03:40.805Z,98645.28
2019-02-10T07:04:44.865Z,98653.38
2019-02-10T07:05:48.869Z,98654.41
2019-02-10T07:06:52.887Z,98654.88
2019-02-10T07:07:56.876Z,98656.81
2019-02-10T07:09:00.893Z,98662.13
2019-02-10T07:10:05.192Z,98648.68
2019-02-10T07:11:09.249Z,98665.94
2019-02-10T07:12:24.158Z,98656.99
2019-02-10T07:13:32.535Z,98655.19
2019-02-10T07:14:38.946Z,98651.77
2019-02-10T07:15:53.894Z,98657.77
2019-02-10T07:17:21.982Z,98667.56
2019-02-10T07:18:36.813Z,98662.90
2019-02-10T07:19:51.669Z,98663.99
2019-02-10T07:20:55.737Z,98672.34
2019-02-10T07:21:59.763Z,98666.47
2019-02-10T07:24:11.014Z,98677.01
2019-02-10T07:25:55.390Z,98671.00
2019-02-10T07:27:03.773Z,98672.73
2019-02-10T07:29:20.355Z,98673.61
2019-02-10T07:30:36.784Z,98669.75
2019-02-10T07:31:49.769Z,98674.85
2019-02-10T07:32:53.799Z,98677.25
2019-02-10T07:34:15.306Z,98686.45
2019-02-10T07:35:29.853Z,98684.55
2019-02-10T07:36:48.826Z,98674.75
2019-02-10T07:38:05.073Z,98677.54
2019-02-10T07:39:23.876Z,98680.83
2019-02-10T07:40:40.725Z,98674.03
2019-02-10T07:46:04.474Z,98673.54
2019-02-10T07:49:21.905Z,98689.09
2019-02-10T07:52:39.400Z,98698.94
2019-02-10T07:54:07.116Z,98697.73
2019-02-10T07:56:25.625Z,98709.51
2019-02-10T07:58:43.316Z,98706.30
2019-02-10T08:00:07.332Z,98709.73
2019-02-10T08:02:23.752Z,98693.45
2019-02-10T08:04:11.025Z,98710.15
2019-02-10T08:05:29.133Z,98713.13
2019-02-10T08:08:50.532Z,98710.74
2019-02-10T08:10:03.262Z,98714.56
2019-02-10T08:11:23.115Z,98714.66
2019-02-10T08:12:38.824Z,98717.53
2019-02-10T08:14:53.346Z,98725.61
2019-02-10T08:16:27.239Z,98710.63
2019-02-10T08:17:54.618Z,98731.16
2019-02-10T08:21:23.200Z,98737.41
2019-02-10T08:22:44.110Z,98732.10
2019-02-10T08:24:00.409Z,98736.35
2019-02-10T08:25:19.969Z,98737.48
2019-02-10T08:30:40.044Z,98739.14
2019-02-10T08:32:54.959Z,98750.37
2019-02-10T08:34:23.073Z,98746.05
2019-02-10T08:35:41.724Z,98749.80
2019-02-10T08:37:03.418Z,98740.67
2019-02-10T08:38:28.504Z,98745.87
2019-02-10T08:39:41.802Z,98747.96
2019-02-10T08:40:55.630Z,98745.44
2019-02-10T08:42:08.160Z,98748.66
2019-02-10T08:44:40.293Z,98747.84
2019-02-10T08:46:00.245Z,98753.01
2019-02-10T08:47:44.104Z,98756.80
2019-02-10T08:49:04.316Z,98770.15
2019-02-10T08:52:21.573Z,98761.36
2019-02-10T08:53:31.388Z,98764.66
2019-02-10T08:54:35.411Z,98771.20
2019-02-10T08:55:39.499Z,98768.50
2019-02-10T08:56:43.659Z,98761.18
2019-02-10T08:57:47.848Z,98759.37
2019-02-10T08:58:51.916Z,98765.22
2019-02-10T08:59:55.925Z,98768.69
2019-02-10T09:00:59.948Z,98764.75
2019-02-10T09:02:03.954Z,98778.27
2019-02-10T09:03:08.037Z,98776.98
2019-02-10T09:04:12.043Z,98776.64
2019-02-10T09:05:16.090Z,98781.27
2019-02-10T09:06:20.183Z,98783.47
2019-02-10T09:07:24.235Z,98782.13
2019-02-10T09:08:28.330Z,98789.38
2019-02-10T09:09:32.330Z,98785.91
2019-02-10T09:10:36.443Z,98782.16
2019-02-10T09:11:40.542Z,98797.59
2019-02-10T09:12:44.569Z,98790.05
2019-02-10T09:13:48.738Z,98794.61
2019-02-10T09:14:52.795Z,98790.58
2019-02-10T09:15:56.905Z,98798.69
2019-02-10T09:17:00.957Z,98807.57
2019-02-10T09:18:05.062Z,98804.98
2019-02-10T09:19:09.286Z,98795.77
2019-02-10T09:20:13.454Z,98812.39
2019-02-10T09:21:17.504Z,98809.83
2019-02-10T09:22:21.583Z,98808.42
2019-02-10T09:23:25.684Z,98802.82
2019-02-10T09:24:29.816Z,98809.05
2019-02-10T09:25:33.830Z,98812.87
2019-02-10T09:26:38.526Z,98807.73
2019-02-10T09:27:42.573Z,98812.65
2019-02-10T09:28:46.674Z,98813.46
2019-02-10T09:29:50.850Z,98811.90
2019-02-10T09:30:54.901Z,98809.55
2019-02-10T09:31:58.994Z,98818.97
2019-02-10T09:33:03.084Z,98811.12
2019-02-10T09:34:07.141Z,98811.08
2019-02-10T09:35:11.421Z,98814.31
2019-02-10T09:36:15.545Z,98802.70
2019-02-10T09:37:19.786Z,98808.08
2019-02-10T09:38:23.847Z,98821.08
2019-02-10T09:39:27.860Z,98808.14
2019-02-10T09:40:32.021Z,98815.69
2019-02-10T09:41:36.090Z,98821.33
2019-02-10T09:42:40.181Z,98806.20
2019-02-10T09:43:44.308Z,98829.25
2019-02-10T09:44:48.313Z,98823.48
2019-02-10T09:45:52.433Z,98819.73
2019-02-10T09:46:56.507Z,98816.28
2019-02-10T09:48:00.541Z,98824.05
2019-02-10T09:49:04.586Z,98832.22
2019-02-10T09:50:11.616Z,98818.09
2019-02-10T09:51:15.684Z,98835.84
2019-02-10T09:52:19.729Z,98830.46
2019-02-10T09:53:23.737Z,98830.21
2019-02-10T09:54:27.811Z,98844.59
2019-02-10T09:55:31.829Z,98843.52
2019-02-10T09:56:35.881Z,98831.59
2019-02-10T09:57:39.959Z,98841.39
2019-02-10T09:58:43.995Z,98849.84
2019-02-10T09:59:48.017Z,98855.48
2019-02-10T10:00:52.111Z,98850.24
2019-02-10T10:01:56.230Z,98854.25
2019-02-10T10:03:00.326Z,98843.48
2019-02-10T10:04:04.366Z,98842.97
2019-02-10T10:05:09.362Z,98858.47
2019-02-10T10:06:13.367Z,98864.90
2019-02-10T10:07:17.407Z,98854.68
2019-02-10T10:08:21.396Z,98861.92
2019-02-10T10:09:25.459Z,98856.56
2019-02-10T10:10:29.463Z,98847.94
2019-02-10T10:11:33.486Z,98870.56
2019-02-10T10:12:37.517Z,98853.02
2019-02-10T10:13:41.527Z,98860.77
2019-02-10T10:14:45.516Z,98855.47
2019-02-10T10:15:49.557Z,98854.31
2019-02-10T10:16:53.553Z,98852.41
2019-02-10T10:17:57.589Z,98849.70
2019-02-10T10:19:01.680Z,98856.45
2019-02-10T10:20:07.106Z,98855.60
2019-02-10T10:21:11.228Z,98857.80
2019-02-10T10:22:15.274Z,98859.23
2019-02-10T10:23:19.419Z,98863.27
2019-02-10T10:24:23.489Z,98867.93
2019-02-10T10:25:27.528Z,98871.58
2019-02-10T10:26:32.292Z,98855.09
2019-02-10T10:27:37.675Z,98874.75
2019-02-10T10:28:42.645Z,98869.02
2019-02-10T10:29:46.672Z,98867.73
2019-02-10T10:30:50.779Z,98872.24
2019-02-10T10:31:54.861Z,98873.87
2019-02-10T10:32:58.959Z,98876.28
2019-02-10T10:34:04.128Z,98866.09
2019-02-10T10:35:08.401Z,98878.22
2019-02-10T10:36:12.489Z,98873.65
2019-02-10T10:37:20.525Z,98884.45
2019-02-10T10:38:24.531Z,98872.36
2019-02-10T10:39:28.839Z,98879.34
2019-02-10T10:40:32.861Z,98879.66
2019-02-10T10:41:36.981Z,98882.13
2019-02-10T10:42:41.213Z,98876.21
2019-02-10T10:43:45.297Z,98893.66
2019-02-10T10:44:49.452Z,98881.85
2019-02-10T10:45:53.558Z,98877.22
2019-02-10T10:46:57.872Z,98877.17
2019-02-10T10:48:02.363Z,98888.85
2019-02-10T10:49:06.541Z,98900.86
2019-02-10T10:50:11.045Z,98882.00
2019-02-10T10:51:15.149Z,98889.86
2019-02-10T10:52:19.356Z,98897.75
2019-02-10T10:53:23.642Z,98891.66
2019-02-10T10:54:27.765Z,98880.87
2019-02-10T10:55:31.875Z,98877.39
2019-02-10T10:56:36.550Z,98880.09
2019-02-10T10:57:41.907Z,98879.86
2019-02-10T10:58:46.609Z,98896.91
2019-02-10T10:59:50.747Z,98876.20
2019-02-10T11:00:54.892Z,98884.30
2019-02-10T11:01:58.945Z,98883.48
2019-02-10T11:03:03.133Z,98881.13
2019-02-10T11:04:07.179Z,98886.73
2019-02-10T11:05:11.361Z,98892.47
2019-02-10T11:06:15.473Z,98897.95
2019-02-10T11:07:20.071Z,98894.13
2019-02-10T11:08:24.477Z,98896.18
2019-02-10T11:09:35.427Z,98888.73
2019-02-10T11:10:32.738Z,98895.56
2019-02-10T11:11:36.755Z,98889.97
2019-02-10T11:12:41.141Z,98892.57
2019-02-10T11:13:45.247Z,98886.19
2019-02-10T11:14:49.668Z,98895.31
2019-02-10T11:15:53.954Z,98890.28
2019-02-10T11:16:58.483Z,98887.18
2019-02-10T11:18:02.788Z,98896.91
2019-02-10T11:19:07.041Z,98905.35
2019-02-10T11:20:11.481Z,98901.33
2019-02-10T11:21:15.691Z,98899.72
2019-02-10T11:22:19.760Z,98906.42
2019-02-10T11:23:26.664Z,98902.38
2019-02-10T11:24:31.055Z,98905.55
2019-02-10T11:25:35.122Z,98901.91
2019-02-10T11:26:45.577Z,98910.47
2019-02-10T11:27:49.896Z,98911.59
2019-02-10T11:28:54.082Z,98906.42
2019-02-10T11:29:59.265Z,98917.41
2019-02-10T11:31:03.368Z,98909.13
2019-02-10T11:32:07.518Z,98913.38
2019-02-10T11:33:12.938Z,98910.95
2019-02-10T11:34:17.109Z,98917.26
2019-02-10T11:35:22.198Z,98915.35
2019-02-10T11:36:26.316Z,98913.16
2019-02-10T11:37:31.174Z,98914.26
2019-02-10T11:38:34.669Z,98921.58
2019-02-10T11:39:43.537Z,98921.33
2019-02-10T11:40:43.053Z,98913.55
2019-02-10T11:41:47.069Z,98917.00
2019-02-10T11:42:51.344Z,98918.02
2019-02-10T11:43:55.433Z,98906.64
2019-02-10T11:44:59.591Z,98923.16
2019-02-10T11:46:03.793Z,98913.44
2019-02-10T11:47:07.944Z,98914.99
2019-02-10T11:48:12.106Z,98913.34
2019-02-10T11:49:16.847Z,98912.19
2019-02-10T11:50:20.992Z,98915.78
2019-02-10T11:51:25.050Z,98913.36
2019-02-10T11:52:29.480Z,98919.46
2019-02-10T11:53:34.101Z,98923.79
2019-02-10T11:54:38.846Z,98918.91
2019-02-10T11:55:43.238Z,98920.76
2019-02-10T11:56:47.437Z,98922.92
2019-02-10T11:57:51.597Z,98913.00
2019-02-10T11:58:55.898Z,98908.09
2019-02-10T12:00:00.021Z,98925.73
2019-02-10T12:01:04.261Z,98917.33
2019-02-10T12:02:08.588Z,98917.94
2019-02-10T12:03:12.840Z,98915.50
2019-02-10T12:04:17.273Z,98915.78
2019-02-10T12:05:21.648Z,98924.16
2019-02-10T12:06:26.118Z,98923.59
2019-02-10T12:07:30.485Z,98915.25
2019-02-10T12:08:35.893Z,98930.61
2019-02-10T12:09:38.940Z,98919.91
2019-02-10T12:10:43.327Z,98916.67
2019-02-10T12:11:47.955Z,98924.45
2019-02-10T12:12:52.779Z,98915.35
2019-02-10T12:13:57.323Z,98923.72
2019-02-10T12:15:01.486Z,98921.56
2019-02-10T12:16:05.855Z,98915.38
2019-02-10T12:17:10.123Z,98912.53
2019-02-10T12:18:14.421Z,98923.80
2019-02-10T12:19:18.848Z,98920.91
2019-02-10T12:20:23.377Z,98919.14
2019-02-10T12:21:27.587Z,98919.17
2019-02-10T12:22:31.709Z,98919.76
2019-02-10T12:23:35.935Z,98918.35
2019-02-10T12:24:40.240Z,98920.13
2019-02-10T12:25:44.456Z,98916.63
2019-02-10T12:26:48.716Z,98914.20
2019-02-10T12:27:52.873Z,98914.00
2019-02-10T12:28:56.990Z,98920.47
2019-02-10T12:30:02.813Z,98923.64
2019-02-10T12:31:11.833Z,98917.77
2019-02-10T12:32:15.965Z,98914.58
2019-02-10T12:33:20.291Z,98914.30
2019-02-10T12:34:25.187Z,98914.52
2019-02-10T12:35:29.490Z,98914.73
2019-02-10T12:36:33.818Z,98895.31
2019-02-10T12:37:38.253Z,98907.77
2019-02-10T12:38:42.680Z,98905.63
2019-02-10T12:39:47.157Z,98898.94
2019-02-10T12:40:51.376Z,98907.62
2019-02-10T12:41:55.474Z,98899.05
2019-02-10T12:42:59.730Z,98905.00
2019-02-10T12:44:03.893Z,98904.72
2019-02-10T12:45:08.500Z,98902.67
2019-02-10T12:46:12.934Z,98910.56
2019-02-10T12:47:18.427Z,98908.45
2019-02-10T12:48:23.202Z,98913.28
2019-02-10T12:49:28.068Z,98911.14
2019-02-10T12:50:32.199Z,98918.48
2019-02-10T12:51:36.244Z,98912.56
2019-02-10T12:52:40.588Z,98918.92
2019-02-10T12:53:44.810Z,98912.61
2019-02-10T12:54:48.997Z,98918.82
2019-02-10T12:55:53.158Z,98909.70
2019-02-10T12:56:57.318Z,98911.86
2019-02-10T12:58:01.592Z,98919.14
2019-02-10T12:59:07.543Z,98919.91
2019-02-10T13:00:13.963Z,98918.13
2019-02-10T13:01:18.808Z,98920.02
2019-02-10T13:02:23.019Z,98925.08
2019-02-10T13:03:27.217Z,98924.89
2019-02-10T13:04:31.352Z,98923.53
2019-02-10T13:05:35.537Z,98926.70
2019-02-10T13:06:39.780Z,98925.87
2019-02-10T13:07:44.172Z,98913.17
2019-02-10T13:08:49.163Z,98922.38
2019-02-10T13:09:53.311Z,98920.83
2019-02-10T13:10:57.656Z,98921.66
2019-02-10T13:12:02.781Z,98919.23
2019-02-10T13:13:08.688Z,98917.61
2019-02-10T13:14:13.024Z,98919.68
2019-02-10T13:15:17.225Z,98934.31
2019-02-10T13:16:21.718Z,98921.38